Time;durP1;ratioP1;P1;durP2;ratioP2;P2;SDS_P1;SDS_P2;PMS_P1;PMS_P2;Temp;Humidity;BMP_temperature;BMP_pressure;BME280_temperature;BME280_humidity;BME280_pressure;Samples;Min_cycle;Max_cycle;Signal;HPM_P1;HPM_P2
2021/09/18 00:03:36;;;;;;;1999.90;999.90;;;;;;;16.42;67.19;100964.50;15830346;28;20050;-60
2021/09/18 00:11:08;;;;;;;1999.90;999.90;;;;;;;16.39;67.17;100968.06;15850366;28;20081;-61
2021/09/18 00:18:44;;;;;;;1999.90;999.90;;;;;;;16.27;67.39;100968.19;15810854;28;20043;-62
2021/09/18 00:26:19;;;;;;;1999.90;999.90;;;;;;;16.32;67.07;100967.06;15847414;28;20577;-62
2021/09/18 00:33:53;;;;;;;1999.90;999.90;;;;;;;16.33;67.23;100974.34;15829171;28;20505;-62
2021/09/18 00:41:25;;;;;;;1999.90;999.90;;;;;;;16.31;67.08;100966.25;15826532;28;20257;-59
2021/09/18 00:49:02;;;;;;;1999.90;999.90;;;;;;;16.34;67.35;100971.16;15806766;28;20121;-61
2021/09/18 00:56:35;;;;;;;1999.90;999.90;;;;;;;16.20;68.16;100967.19;15827989;28;20094;-61
2021/09/18 01:04:12;;;;;;;1999.90;999.90;;;;;;;16.29;68.13;100965.00;15828285;28;20102;-60
2021/09/18 01:11:50;;;;;;;1999.90;999.90;;;;;;;16.39;67.56;100959.63;15824796;28;20048;-60
2021/09/18 01:19:23;;;;;;;1999.90;999.90;;;;;;;16.16;68.75;100956.66;15819439;28;20065;-60
2021/09/18 01:26:57;;;;;;;1999.90;999.90;;;;;;;16.06;69.01;100960.03;15849952;28;20513;-61
2021/09/18 01:34:29;;;;;;;1999.90;999.90;;;;;;;16.06;69.41;100965.66;15839995;28;20492;-60
2021/09/18 01:42:03;;;;;;;1999.90;999.90;;;;;;;16.15;69.18;100966.31;15848663;28;20563;-61
2021/09/18 01:49:36;;;;;;;1999.90;999.90;;;;;;;16.03;69.10;100966.38;15825265;28;20047;-59
2021/09/18 01:57:10;;;;;;;1999.90;999.90;;;;;;;15.97;69.70;100958.59;15827714;28;20439;-61
2021/09/18 02:04:42;;;;;;;1999.90;999.90;;;;;;;16.13;69.42;100953.75;15839949;28;20040;-58
2021/09/18 02:12:15;;;;;;;1999.90;999.90;;;;;;;16.01;70.14;100968.75;15805877;28;20094;-62
2021/09/18 02:19:48;;;;;;;1999.90;999.90;;;;;;;15.99;70.09;100957.03;15820691;28;20532;-62
2021/09/18 02:27:21;;;;;;;1999.90;999.90;;;;;;;15.85;70.81;100953.88;15829769;28;20517;-59
2021/09/18 02:34:53;;;;;;;1999.90;999.90;;;;;;;15.73;70.75;100953.94;15850515;28;20046;-58
2021/09/18 02:42:27;;;;;;;1999.90;999.90;;;;;;;15.93;70.44;100952.84;15835713;28;20044;-58
2021/09/18 02:49:59;;;;;;;1999.90;999.90;;;;;;;15.98;70.67;100951.78;15832966;28;20512;-57
2021/09/18 02:57:33;;;;;;;1999.90;999.90;;;;;;;15.84;70.63;100943.81;15841744;28;20043;-57
2021/09/18 03:05:07;;;;;;;1999.90;999.90;;;;;;;15.82;71.27;100941.31;15835364;28;20048;-57
2021/09/18 03:12:41;;;;;;;1999.90;999.90;;;;;;;16.12;70.56;100944.47;15825641;28;20036;-57
2021/09/18 03:20:14;;;;;;;1999.90;999.90;;;;;;;15.90;71.24;100942.31;15870226;28;20040;-58
2021/09/18 03:27:48;;;;;;;1999.90;999.90;;;;;;;15.89;71.27;100937.88;15854982;28;20068;-57
2021/09/18 03:35:21;;;;;;;1999.90;999.90;;;;;;;15.98;71.26;100935.72;15830662;28;20043;-57
2021/09/18 03:42:55;;;;;;;1999.90;999.90;;;;;;;15.96;70.97;100935.25;15830453;28;20389;-57
2021/09/18 03:50:28;;;;;;;1999.90;999.90;;;;;;;16.12;71.12;100923.97;15837516;28;20048;-57
2021/09/18 03:58:03;;;;;;;1999.90;999.90;;;;;;;16.07;71.37;100922.25;15831861;28;20089;-60
2021/09/18 04:05:38;;;;;;;1999.90;999.90;;;;;;;15.94;71.72;100929.16;15823703;28;20040;-59
2021/09/18 04:13:13;;;;;;;1999.90;999.90;;;;;;;16.07;71.42;100933.53;15826955;28;20618;-60
2021/09/18 04:20:45;;;;;;;1999.90;999.90;;;;;;;15.91;72.44;100926.25;15856639;28;20043;-58
2021/09/18 04:28:20;;;;;;;1999.90;999.90;;;;;;;15.94;72.82;100926.34;15850541;28;20626;-59
2021/09/18 04:35:53;;;;;;;1999.90;999.90;;;;;;;15.90;73.58;100933.88;15830225;28;20055;-57
2021/09/18 04:43:27;;;;;;;1999.90;999.90;;;;;;;16.02;73.92;100930.97;15835262;28;20042;-59
2021/09/18 04:51:01;;;;;;;1999.90;999.90;;;;;;;15.83;74.90;100934.50;15824710;28;20048;-58
2021/09/18 04:58:36;;;;;;;1999.90;999.90;;;;;;;15.64;75.81;100936.44;15845154;28;20072;-59
2021/09/18 05:06:10;;;;;;;1999.90;999.90;;;;;;;15.61;76.26;100945.59;15795895;28;20074;-60
2021/09/18 05:13:44;;;;;;;1999.90;999.90;;;;;;;15.72;76.71;100953.13;15818948;28;20551;-59
2021/09/18 05:21:19;;;;;;;1999.90;999.90;;;;;;;15.64;77.73;100967.38;15778732;28;20051;-60
2021/09/18 05:28:54;;;;;;;1999.90;999.90;;;;;;;15.79;77.65;100966.56;15847715;28;20047;-60
2021/09/18 05:36:26;;;;;;;1999.90;999.90;;;;;;;15.81;78.16;100973.47;15822256;28;20481;-58
2021/09/18 05:44:00;;;;;;;1999.90;999.90;;;;;;;15.75;78.63;100969.31;15824733;28;20071;-60
2021/09/18 05:51:34;;;;;;;1999.90;999.90;;;;;;;15.74;79.13;100962.03;15830952;28;20676;-59
2021/09/18 05:59:08;;;;;;;1999.90;999.90;;;;;;;15.80;79.31;100971.81;15816871;28;20033;-59
2021/09/18 06:06:41;;;;;;;1999.90;999.90;;;;;;;15.84;79.77;100974.75;15807472;28;20060;-59
2021/09/18 06:14:15;;;;;;;1999.90;999.90;;;;;;;15.96;79.13;100969.03;15823410;28;20118;-60
2021/09/18 06:21:48;;;;;;;1999.90;999.90;;;;;;;15.94;79.59;100979.81;15876080;28;20441;-59
2021/09/18 06:29:26;;;;;;;1999.90;999.90;;;;;;;16.06;79.47;100984.56;15838407;28;20055;-58
2021/09/18 06:36:59;;;;;;;1999.90;999.90;;;;;;;16.10;79.67;100991.91;15814703;28;20036;-59
2021/09/18 06:44:32;;;;;;;1999.90;999.90;;;;;;;16.27;79.76;100993.53;15850686;28;20044;-60
2021/09/18 06:52:06;;;;;;;1999.90;999.90;;;;;;;16.18;80.23;100998.53;15812171;28;20412;-59
2021/09/18 06:59:40;;;;;;;1999.90;999.90;;;;;;;16.17;80.05;100994.91;15812529;28;20123;-59
2021/09/18 07:07:12;;;;;;;1999.90;999.90;;;;;;;16.05;81.57;101006.25;15793427;28;20044;-60
2021/09/18 07:14:46;;;;;;;1999.90;999.90;;;;;;;16.37;80.77;101015.50;15812232;28;20064;-59
2021/09/18 07:22:18;;;;;;;1999.90;999.90;;;;;;;16.64;79.90;101035.44;15842440;28;20057;-59
2021/09/18 07:29:52;;;;;;;1999.90;999.90;;;;;;;16.60;80.73;101021.28;15873436;28;20416;-60
2021/09/18 07:37:28;;;;;;;1999.90;999.90;;;;;;;16.83;80.90;101034.69;15854625;28;20224;-60
2021/09/18 07:45:05;;;;;;;1999.90;999.90;;;;;;;17.11;80.40;101035.34;15854638;28;20044;-61
2021/09/18 07:52:37;;;;;;;1999.90;999.90;;;;;;;17.07;81.75;101039.25;15871814;28;20044;-57
2021/09/18 08:00:12;;;;;;;1999.90;999.90;;;;;;;17.55;79.03;101047.13;15871838;28;20097;-57
2021/09/18 08:07:44;;;;;;;1999.90;999.90;;;;;;;18.06;78.17;101046.09;15870568;28;20118;-59
2021/09/18 08:15:19;;;;;;;1999.90;999.90;;;;;;;18.17;78.38;101059.22;15872070;27;20052;-56
2021/09/18 08:22:51;;;;;;;1999.90;999.90;;;;;;;18.40;77.24;101047.09;15870645;27;20054;-56
2021/09/18 08:30:26;;;;;;;1999.90;999.90;;;;;;;18.66;77.63;101063.31;15913822;27;20047;-58
2021/09/18 08:37:58;;;;;;;1999.90;999.90;;;;;;;19.38;73.97;101059.44;15871453;28;20515;-58
2021/09/18 08:45:32;;;;;;;1999.90;999.90;;;;;;;19.04;73.70;101073.53;15872927;28;20051;-56
2021/09/18 08:53:12;;;;;;;1999.90;999.90;;;;;;;18.81;75.81;101079.28;15850542;28;20154;-56
2021/09/18 09:00:51;;;;;;;1999.90;999.90;;;;;;;19.32;74.06;101090.09;15866938;28;20051;-57
2021/09/18 09:08:30;;;;;;;1999.90;999.90;;;;;;;19.83;71.65;101093.19;15866600;28;20118;-57
2021/09/18 09:16:22;;;;;;;1999.90;999.90;;;;;;;20.28;71.78;101087.59;15850492;28;20089;-57
2021/09/18 09:24:08;;;;;;;1999.90;999.90;;;;;;;20.39;71.45;101085.66;15848311;28;20511;-56
2021/09/18 09:31:51;;;;;;;1999.90;999.90;;;;;;;20.74;70.22;101079.53;15865560;28;20075;-56
2021/09/18 09:39:27;;;;;;;1999.90;999.90;;;;;;;22.56;64.61;101080.22;15865732;28;20130;-58
2021/09/18 09:47:09;;;;;;;1999.90;999.90;;;;;;;21.79;65.65;101086.19;15864897;28;20524;-59
2021/09/18 09:54:42;;;;;;;1999.90;999.90;;;;;;;20.63;68.85;101093.59;15861967;28;20036;-59
2021/09/18 10:02:16;;;;;;;1999.90;999.90;;;;;;;19.23;74.23;101098.06;15885137;28;20056;-60
2021/09/18 10:09:48;;;;;;;1999.90;999.90;;;;;;;18.93;77.95;101112.97;15869768;28;20043;-59
2021/09/18 10:17:22;;;;;;;1999.90;999.90;;;;;;;19.07;78.65;101112.41;15883285;28;20130;-59
2021/09/18 10:24:55;;;;;;;1999.90;999.90;;;;;;;19.80;77.76;101112.97;15669068;23;20050;-73
2021/09/18 10:32:45;;;;;;;1999.90;999.90;;;;;;;20.54;72.22;101109.31;15595233;28;20041;-74
2021/09/18 10:40:18;;;;;;;1999.90;999.90;;;;;;;21.44;68.07;101114.41;15613532;28;20046;-74
2021/09/18 10:47:52;;;;;;;;;;;;;;;22.15;65.45;101111.88;15596144;28;20448;-74
2021/09/18 10:55:28;;;;;;;1999.90;999.90;;;;;;;22.10;65.74;101115.13;15599164;28;19974;-74
2021/09/18 11:03:03;;;;;;;1999.90;999.90;;;;;;;22.14;65.70;101119.59;15624453;28;20132;-76
2021/09/18 11:10:51;;;;;;;1999.90;999.90;;;;;;;22.15;62.88;101118.34;15623080;28;20033;-77
2021/09/18 11:18:42;;;;;;;1999.90;999.90;;;;;;;21.44;63.72;101129.41;15623219;28;20095;-75
2021/09/18 11:26:41;;;;;;;1999.90;999.90;;;;;;;24.26;57.92;101135.88;15564463;28;20042;-76
2021/09/18 11:34:26;;;;;;;1999.90;999.90;;;;;;;21.72;62.20;101148.63;15561544;28;20066;-76
2021/09/18 11:42:17;;;;;;;1999.90;999.90;;;;;;;20.31;66.84;101160.47;15542898;28;20045;-75
2021/09/18 11:49:50;;;;;;;1999.90;999.90;;;;;;;19.12;68.78;101173.47;15543102;28;20048;-76
2021/09/18 11:57:41;;;;;;;1999.90;999.90;;;;;;;19.89;68.77;101165.25;15559016;28;20502;-76
2021/09/18 12:05:25;;;;;;;1999.90;999.90;;;;;;;20.68;66.16;101169.78;15539374;28;20042;-76
2021/09/18 12:13:17;;;;;;;1999.90;999.90;;;;;;;19.74;67.77;101180.47;15541457;28;20050;-74
2021/09/18 12:21:11;;;;;;;1999.90;999.90;;;;;;;18.80;70.31;101198.41;15579420;28;20048;-76
2021/09/18 12:29:13;;;;;;;1999.90;999.90;;;;;;;18.42;70.71;101208.56;15674022;28;20049;-75
2021/09/18 12:37:07;;;;;;;1999.90;999.90;;;;;;;18.36;70.05;101204.44;15680703;28;20044;-76
2021/09/18 12:44:41;;;;;;;1999.90;999.90;;;;;;;18.54;69.33;101211.22;15680043;28;20111;-75
2021/09/18 12:52:15;;;;;;;1999.90;999.90;;;;;;;18.95;67.22;101209.56;15679787;28;20059;-75
2021/09/18 12:59:47;;;;;;;1999.90;999.90;;;;;;;19.94;64.15;101211.47;15678502;28;20110;-75
2021/09/18 13:07:24;;;;;;;1999.90;999.90;;;;;;;20.02;63.67;101216.03;15677845;28;20488;-74
2021/09/18 13:15:38;;;;;;;1999.90;999.90;;;;;;;19.54;64.16;101221.41;15677251;28;20048;-76
2021/09/18 13:23:11;;;;;;;1999.90;999.90;;;;;;;19.15;67.44;101230.09;15598921;28;20045;-75
2021/09/18 13:30:43;;;;;;;1999.90;999.90;;;;;;;18.70;66.53;101230.94;15606897;28;20051;-74
2021/09/18 13:38:17;;;;;;;1999.90;999.90;;;;;;;18.19;67.15;101219.81;15672290;28;20854;-74
2021/09/18 13:45:49;;;;;;;1999.90;999.90;;;;;;;18.54;66.72;101225.34;15687840;28;20608;-74
2021/09/18 13:53:22;;;;;;;1999.90;999.90;;;;;;;18.41;66.28;101223.88;15637755;28;20046;-74
2021/09/18 14:00:55;;;;;;;1999.90;999.90;;;;;;;18.74;67.13;101232.63;15553751;28;20050;-74
2021/09/18 14:08:28;;;;;;;1999.90;999.90;;;;;;;18.61;65.61;101227.50;15608486;28;20747;-75
2021/09/18 14:16:01;;;;;;;1999.90;999.90;;;;;;;19.09;64.82;101231.63;15608964;28;20071;-73
2021/09/18 14:23:38;;;;;;;1999.90;999.90;;;;;;;19.15;63.30;101224.44;15621932;28;20054;-75
2021/09/18 14:31:11;;;;;;;1999.90;999.90;;;;;;;19.12;63.34;101230.03;15616205;28;20099;-73
2021/09/18 14:38:44;;;;;;;1999.90;999.90;;;;;;;18.63;64.35;101236.41;15648223;28;20591;-76
2021/09/18 14:46:17;;;;;;;1999.90;999.90;;;;;;;18.85;64.13;101240.47;15607088;28;20045;-75
2021/09/18 14:53:53;;;;;;;1999.90;999.90;;;;;;;18.88;64.49;101257.53;15624270;28;20398;-75
2021/09/18 15:01:25;;;;;;;1999.90;999.90;;;;;;;18.98;64.45;101247.59;15605155;28;20053;-77
2021/09/18 15:08:59;;;;;;;1999.90;999.90;;;;;;;18.94;65.84;101236.19;15623662;28;20532;-75
2021/09/18 15:16:32;;;;;;;1999.90;999.90;;;;;;;18.97;65.80;101243.94;15618450;28;20034;-74
2021/09/18 15:24:06;;;;;;;1999.90;999.90;;;;;;;18.86;65.83;101256.25;15608456;28;20045;-75
2021/09/18 15:31:53;;;;;;;1999.90;999.90;;;;;;;19.06;66.84;101251.34;15602520;28;20069;-76
2021/09/18 15:39:28;;;;;;;1999.90;999.90;;;;;;;18.60;67.12;101260.59;15602763;28;20069;-75
2021/09/18 15:47:00;;;;;;;1999.90;999.90;;;;;;;18.46;68.43;101261.16;15620549;28;20077;-75
2021/09/18 15:54:33;;;;;;;1999.90;999.90;;;;;;;18.27;68.69;101266.00;15644148;28;20049;-76
2021/09/18 16:02:06;;;;;;;1999.90;999.90;;;;;;;18.05;69.63;101262.72;15602355;28;20049;-77
2021/09/18 16:09:39;;;;;;;1999.90;999.90;;;;;;;18.15;69.88;101269.78;15619669;28;20048;-76
2021/09/18 16:17:12;;;;;;;1999.90;999.90;;;;;;;17.69;71.85;101274.38;15626972;28;20037;-76
2021/09/18 16:24:46;;;;;;;1999.90;999.90;;;;;;;17.30;71.76;101277.09;15624546;28;20053;-75
2021/09/18 16:32:18;;;;;;;1999.90;999.90;;;;;;;17.38;70.31;101278.06;15615467;28;20048;-76
2021/09/18 16:39:54;;;;;;;1999.90;999.90;;;;;;;17.04;70.84;101286.09;15615534;28;20049;-75
2021/09/18 16:47:30;;;;;;;1999.90;999.90;;;;;;;17.13;70.65;101281.09;15616801;28;20049;-76
2021/09/18 16:55:05;;;;;;;1999.90;999.90;;;;;;;17.29;70.65;101292.34;15617679;28;20129;-76
2021/09/18 17:02:38;;;;;;;1999.90;999.90;;;;;;;17.07;70.90;101288.16;15617492;28;20099;-76
2021/09/18 17:10:15;;;;;;;1999.90;999.90;;;;;;;17.02;70.99;101286.47;15617120;28;20421;-76
2021/09/18 17:17:47;;;;;;;1999.90;999.90;;;;;;;17.04;69.85;101297.38;15616765;28;20045;-75
2021/09/18 17:25:25;;;;;;;1999.90;999.90;;;;;;;17.08;69.68;101306.72;15673421;28;20044;-75
2021/09/18 17:32:57;;;;;;;1999.90;999.90;;;;;;;17.08;69.84;101303.91;15661100;28;20076;-75
2021/09/18 17:40:33;;;;;;;1999.90;999.90;;;;;;;17.02;70.07;101316.66;15678554;28;20076;-75
2021/09/18 17:48:08;;;;;;;1999.90;999.90;;;;;;;16.90;70.06;101328.00;15678281;28;20072;-76
2021/09/18 17:55:57;;;;;;;1999.90;999.90;;;;;;;16.98;69.63;101333.44;15659020;28;20047;-76
2021/09/18 18:03:47;;;;;;;1999.90;999.90;;;;;;;17.14;70.30;101344.75;15662147;28;20419;-76
2021/09/18 18:11:20;;;;;;;1999.90;999.90;;;;;;;16.88;70.57;101350.06;15689535;28;20049;-75
2021/09/18 18:19:05;;;;;;;1999.90;999.90;;;;;;;16.97;70.44;101359.19;15666905;28;20052;-76
2021/09/18 18:26:38;;;;;;;1999.90;999.90;;;;;;;16.87;71.12;101359.72;15626831;28;20060;-75
2021/09/18 18:34:11;;;;;;;1999.90;999.90;;;;;;;16.84;69.70;101368.91;15626853;28;20045;-76
2021/09/18 18:42:01;;;;;;;1999.90;999.90;;;;;;;16.97;68.80;101371.28;15625340;28;20043;-76
2021/09/18 18:49:49;;;;;;;1999.90;999.90;;;;;;;16.92;69.20;101382.03;15624226;28;20049;-75
2021/09/18 18:57:23;;;;;;;1999.90;999.90;;;;;;;16.94;69.37;101388.94;15623541;28;20038;-76
2021/09/18 19:04:55;;;;;;;1999.90;999.90;;;;;;;16.93;68.20;101394.94;15623001;28;20112;-76
2021/09/18 19:12:39;;;;;;;1999.90;999.90;;;;;;;16.76;68.79;101401.69;15622395;28;20038;-75
2021/09/18 19:20:21;;;;;;;1999.90;999.90;;;;;;;16.62;68.00;101404.06;15641378;22;20053;-55
2021/09/18 19:27:55;;;;;;;1999.90;999.90;;;;;;;16.69;68.76;101418.41;15621990;28;20053;-57
2021/09/18 19:35:29;;;;;;;1999.90;999.90;;;;;;;16.74;69.11;101412.50;15620785;28;20084;-57
2021/09/18 19:43:05;;;;;;;1999.90;999.90;;;;;;;16.60;69.73;101415.72;15622325;28;20101;-58
2021/09/18 19:50:38;;;;;;;1999.90;999.90;;;;;;;16.41;69.17;101415.53;15616072;28;20129;-57
2021/09/18 19:58:11;;;;;;;1999.90;999.90;;;;;;;16.57;68.31;101413.63;15587078;28;20457;-60
2021/09/18 20:05:43;;;;;;;1999.90;999.90;;;;;;;16.45;68.44;101414.44;15603138;28;20080;-57
2021/09/18 20:13:17;;;;;;;1999.90;999.90;;;;;;;16.44;68.44;101418.44;15620361;28;20057;-57
2021/09/18 20:20:49;;;;;;;1999.90;999.90;;;;;;;16.42;68.71;101412.34;15626899;28;20103;-57
2021/09/18 20:28:28;;;;;;;1999.90;999.90;;;;;;;16.30;68.83;101418.00;15618898;28;20045;-55
2021/09/18 20:36:00;;;;;;;1999.90;999.90;;;;;;;16.30;68.80;101415.19;15601633;28;20042;-61
2021/09/18 20:43:34;;;;;;;1999.90;999.90;;;;;;;16.44;69.15;101414.81;15613177;28;20584;-58
2021/09/18 20:51:06;;;;;;;1999.90;999.90;;;;;;;16.54;68.76;101419.13;15618249;28;20041;-58
2021/09/18 20:58:40;;;;;;;1999.90;999.90;;;;;;;16.28;68.31;101414.72;15618306;28;20325;-56
2021/09/18 21:06:12;;;;;;;1999.90;999.90;;;;;;;16.57;66.90;101416.44;15617751;28;20046;-61
2021/09/18 21:13:46;;;;;;;1999.90;999.90;;;;;;;16.28;66.80;101423.19;15618229;28;20045;-59
2021/09/18 21:21:18;;;;;;;1999.90;999.90;;;;;;;16.25;65.94;101425.88;15587888;28;20455;-55
2021/09/18 21:29:08;;;;;;;1999.90;999.90;;;;;;;16.24;65.48;101429.88;15617101;28;20045;-57
2021/09/18 21:36:40;;;;;;;1999.90;999.90;;;;;;;16.00;65.16;101423.09;15596642;28;20050;-58
2021/09/18 21:44:13;;;;;;;1999.90;999.90;;;;;;;16.04;65.69;101429.66;15604546;28;20494;-58
2021/09/18 21:52:09;;;;;;;1999.90;999.90;;;;;;;15.88;63.21;101442.81;15598877;28;20042;-56
2021/09/18 21:59:43;;;;;;;1999.90;999.90;;;;;;;15.53;61.81;101431.97;15615203;28;20402;-56
2021/09/18 22:07:15;;;;;;;1999.90;999.90;;;;;;;15.66;60.81;101434.81;15572992;28;20523;-54
2021/09/18 22:14:48;;;;;;;1999.90;999.90;;;;;;;15.58;59.03;101434.53;15578501;28;20046;-54
2021/09/18 22:22:26;;;;;;;;;;;;;;;15.75;56.22;101429.91;15628703;28;20045;-54
2021/09/18 22:30:00;;;;;;;1999.90;999.90;;;;;;;15.72;57.52;101431.41;15596886;28;20456;-56
2021/09/18 22:37:32;;;;;;;1999.90;999.90;;;;;;;15.74;57.36;101436.72;15614191;28;20046;-56
2021/09/18 22:45:20;;;;;;;1999.90;999.90;;;;;;;15.76;58.10;101443.63;15613962;28;20045;-54
2021/09/18 22:53:10;;;;;;;1999.90;999.90;;;;;;;15.99;58.84;101448.78;15620522;28;20418;-58
2021/09/18 23:01:02;;;;;;;1999.90;999.90;;;;;;;15.61;57.40;101435.84;15627778;28;20049;-57
2021/09/18 23:09:04;;;;;;;1999.90;999.90;;;;;;;15.69;58.54;101440.56;15624352;28;20064;-54
2021/09/18 23:16:38;;;;;;;1999.90;999.90;;;;;;;15.73;59.49;101435.03;15581080;28;20115;-55
2021/09/18 23:24:11;;;;;;;1999.90;999.90;;;;;;;15.93;60.63;101425.66;15623418;28;20073;-56
2021/09/18 23:31:45;;;;;;;1999.90;999.90;;;;;;;16.07;62.18;101428.13;15591755;28;20041;-55
2021/09/18 23:39:18;;;;;;;1999.90;999.90;;;;;;;16.02;59.81;101419.91;15642720;28;20076;-55
2021/09/18 23:46:51;;;;;;;1999.90;999.90;;;;;;;15.90;61.66;101431.19;15621819;28;20045;-56
2021/09/18 23:54:23;;;;;;;1999.90;999.90;;;;;;;15.97;61.06;101426.63;15634466;28;20053;-56
